sensor_id;sensor_type;location;lat;lon;timestamp;P1;durP1;ratioP1;P2;durP2;ratioP2
77099;SDS011;66602;48.922;2.414;2023-04-07T00:00:01;10.13;;;2.92;;
77099;SDS011;66602;48.922;2.414;2023-04-07T00:02:28;7.72;;;2.70;;
77099;SDS011;66602;48.922;2.414;2023-04-07T00:04:54;9.68;;;2.25;;
77099;SDS011;66602;48.922;2.414;2023-04-07T00:07:21;7.85;;;2.10;;
77099;SDS011;66602;48.922;2.414;2023-04-07T00:09:47;8.60;;;2.50;;
77099;SDS011;66602;48.922;2.414;2023-04-07T00:12:12;5.88;;;3.03;;
77099;SDS011;66602;48.922;2.414;2023-04-07T00:14:38;5.30;;;2.00;;
77099;SDS011;66602;48.922;2.414;2023-04-07T00:17:03;4.30;;;1.98;;
77099;SDS011;66602;48.922;2.414;2023-04-07T00:19:29;5.50;;;2.40;;
77099;SDS011;66602;48.922;2.414;2023-04-07T00:21:54;9.25;;;2.33;;
77099;SDS011;66602;48.922;2.414;2023-04-07T00:24:20;7.82;;;2.88;;
77099;SDS011;66602;48.922;2.414;2023-04-07T00:26:45;7.68;;;2.47;;
77099;SDS011;66602;48.922;2.414;2023-04-07T00:29:11;9.30;;;3.30;;
77099;SDS011;66602;48.922;2.414;2023-04-07T00:31:36;9.43;;;2.25;;
77099;SDS011;66602;48.922;2.414;2023-04-07T00:34:01;9.85;;;2.35;;
77099;SDS011;66602;48.922;2.414;2023-04-07T00:36:27;11.32;;;2.47;;
77099;SDS011;66602;48.922;2.414;2023-04-07T00:38:52;11.13;;;2.83;;
77099;SDS011;66602;48.922;2.414;2023-04-07T00:41:18;8.68;;;2.22;;
77099;SDS011;66602;48.922;2.414;2023-04-07T00:43:43;6.57;;;2.22;;
77099;SDS011;66602;48.922;2.414;2023-04-07T00:46:10;5.50;;;1.80;;
77099;SDS011;66602;48.922;2.414;2023-04-07T00:48:35;15.23;;;2.33;;
77099;SDS011;66602;48.922;2.414;2023-04-07T00:51:01;12.27;;;2.55;;
77099;SDS011;66602;48.922;2.414;2023-04-07T00:53:28;13.45;;;2.10;;
77099;SDS011;66602;48.922;2.414;2023-04-07T00:55:53;12.10;;;2.70;;
77099;SDS011;66602;48.922;2.414;2023-04-07T00:58:19;9.52;;;2.88;;
77099;SDS011;66602;48.922;2.414;2023-04-07T01:00:47;12.98;;;2.53;;
77099;SDS011;66602;48.922;2.414;2023-04-07T01:04:04;13.80;;;3.50;;
77099;SDS011;66602;48.922;2.414;2023-04-07T01:06:17;12.27;;;3.17;;
77099;SDS011;66602;48.922;2.414;2023-04-07T01:12:04;7.22;;;2.47;;
77099;SDS011;66602;48.922;2.414;2023-04-07T01:14:41;10.00;;;2.90;;
77099;SDS011;66602;48.922;2.414;2023-04-07T01:17:11;14.43;;;2.15;;
77099;SDS011;66602;48.922;2.414;2023-04-07T01:19:39;8.65;;;2.63;;
77099;SDS011;66602;48.922;2.414;2023-04-07T01:22:17;14.57;;;2.45;;
77099;SDS011;66602;48.922;2.414;2023-04-07T01:30:15;6.75;;;2.10;;
77099;SDS011;66602;48.922;2.414;2023-04-07T01:32:42;5.18;;;2.42;;
77099;SDS011;66602;48.922;2.414;2023-04-07T01:35:13;8.90;;;2.80;;
77099;SDS011;66602;48.922;2.414;2023-04-07T01:37:40;8.00;;;2.80;;
77099;SDS011;66602;48.922;2.414;2023-04-07T01:40:07;8.07;;;2.67;;
77099;SDS011;66602;48.922;2.414;2023-04-07T01:42:34;9.10;;;2.42;;
77099;SDS011;66602;48.922;2.414;2023-04-07T01:45:00;11.73;;;1.98;;
77099;SDS011;66602;48.922;2.414;2023-04-07T01:47:28;13.10;;;2.78;;
77099;SDS011;66602;48.922;2.414;2023-04-07T01:49:57;12.60;;;2.95;;
77099;SDS011;66602;48.922;2.414;2023-04-07T01:52:24;9.35;;;2.78;;
77099;SDS011;66602;48.922;2.414;2023-04-07T01:54:51;13.32;;;2.95;;
77099;SDS011;66602;48.922;2.414;2023-04-07T01:57:18;9.10;;;3.45;;
77099;SDS011;66602;48.922;2.414;2023-04-07T01:59:43;16.73;;;2.88;;
77099;SDS011;66602;48.922;2.414;2023-04-07T02:02:09;7.75;;;2.63;;
77099;SDS011;66602;48.922;2.414;2023-04-07T02:04:36;9.98;;;2.75;;
77099;SDS011;66602;48.922;2.414;2023-04-07T02:07:18;13.88;;;2.90;;
77099;SDS011;66602;48.922;2.414;2023-04-07T02:09:46;9.70;;;2.92;;
77099;SDS011;66602;48.922;2.414;2023-04-07T02:12:14;6.63;;;2.40;;
77099;SDS011;66602;48.922;2.414;2023-04-07T02:14:41;15.95;;;3.05;;
77099;SDS011;66602;48.922;2.414;2023-04-07T02:17:07;12.00;;;2.63;;
77099;SDS011;66602;48.922;2.414;2023-04-07T02:19:34;10.15;;;2.92;;
77099;SDS011;66602;48.922;2.414;2023-04-07T02:22:03;8.27;;;3.05;;
77099;SDS011;66602;48.922;2.414;2023-04-07T02:24:30;8.68;;;2.25;;
77099;SDS011;66602;48.922;2.414;2023-04-07T02:26:55;12.23;;;2.97;;
77099;SDS011;66602;48.922;2.414;2023-04-07T02:29:21;9.88;;;3.05;;
77099;SDS011;66602;48.922;2.414;2023-04-07T02:31:47;15.77;;;3.80;;
77099;SDS011;66602;48.922;2.414;2023-04-07T02:34:12;18.77;;;3.70;;
77099;SDS011;66602;48.922;2.414;2023-04-07T02:36:37;11.43;;;2.97;;
77099;SDS011;66602;48.922;2.414;2023-04-07T02:39:03;10.77;;;2.70;;
77099;SDS011;66602;48.922;2.414;2023-04-07T02:41:28;7.93;;;3.10;;
77099;SDS011;66602;48.922;2.414;2023-04-07T02:43:54;13.95;;;3.33;;
77099;SDS011;66602;48.922;2.414;2023-04-07T02:46:19;16.23;;;6.40;;
77099;SDS011;66602;48.922;2.414;2023-04-07T02:48:45;13.48;;;3.75;;
77099;SDS011;66602;48.922;2.414;2023-04-07T02:51:10;15.43;;;3.60;;
77099;SDS011;66602;48.922;2.414;2023-04-07T02:53:36;9.48;;;3.20;;
77099;SDS011;66602;48.922;2.414;2023-04-07T02:56:01;14.82;;;4.07;;
77099;SDS011;66602;48.922;2.414;2023-04-07T02:58:27;13.32;;;3.22;;
77099;SDS011;66602;48.922;2.414;2023-04-07T03:00:52;22.50;;;3.40;;
77099;SDS011;66602;48.922;2.414;2023-04-07T03:03:18;13.55;;;3.97;;
77099;SDS011;66602;48.922;2.414;2023-04-07T03:05:43;9.60;;;2.83;;
77099;SDS011;66602;48.922;2.414;2023-04-07T03:08:09;14.30;;;3.13;;
77099;SDS011;66602;48.922;2.414;2023-04-07T03:10:34;9.65;;;3.17;;
77099;SDS011;66602;48.922;2.414;2023-04-07T03:13:00;8.75;;;3.00;;
77099;SDS011;66602;48.922;2.414;2023-04-07T03:15:26;9.80;;;3.08;;
77099;SDS011;66602;48.922;2.414;2023-04-07T03:17:51;9.38;;;3.72;;
77099;SDS011;66602;48.922;2.414;2023-04-07T03:20:16;12.50;;;3.85;;
77099;SDS011;66602;48.922;2.414;2023-04-07T03:22:42;11.27;;;2.80;;
77099;SDS011;66602;48.922;2.414;2023-04-07T03:25:08;21.17;;;3.65;;
77099;SDS011;66602;48.922;2.414;2023-04-07T03:27:35;8.13;;;3.20;;
77099;SDS011;66602;48.922;2.414;2023-04-07T03:30:00;8.77;;;2.75;;
77099;SDS011;66602;48.922;2.414;2023-04-07T03:32:26;17.38;;;3.30;;
77099;SDS011;66602;48.922;2.414;2023-04-07T03:34:52;15.23;;;4.35;;
77099;SDS011;66602;48.922;2.414;2023-04-07T03:37:17;15.25;;;3.40;;
77099;SDS011;66602;48.922;2.414;2023-04-07T03:39:43;13.77;;;3.83;;
77099;SDS011;66602;48.922;2.414;2023-04-07T03:42:08;8.35;;;3.60;;
77099;SDS011;66602;48.922;2.414;2023-04-07T03:44:34;16.50;;;3.67;;
77099;SDS011;66602;48.922;2.414;2023-04-07T03:46:59;13.93;;;4.38;;
77099;SDS011;66602;48.922;2.414;2023-04-07T03:49:25;14.65;;;4.03;;
77099;SDS011;66602;48.922;2.414;2023-04-07T03:51:51;15.15;;;3.50;;
77099;SDS011;66602;48.922;2.414;2023-04-07T03:54:16;8.75;;;3.00;;
77099;SDS011;66602;48.922;2.414;2023-04-07T03:56:42;19.48;;;4.25;;
77099;SDS011;66602;48.922;2.414;2023-04-07T03:59:07;15.00;;;4.22;;
77099;SDS011;66602;48.922;2.414;2023-04-07T04:01:33;25.52;;;4.85;;
77099;SDS011;66602;48.922;2.414;2023-04-07T04:03:59;18.35;;;4.07;;
77099;SDS011;66602;48.922;2.414;2023-04-07T04:06:24;17.17;;;4.80;;
77099;SDS011;66602;48.922;2.414;2023-04-07T04:08:51;17.45;;;3.90;;
77099;SDS011;66602;48.922;2.414;2023-04-07T04:11:16;19.67;;;4.13;;
77099;SDS011;66602;48.922;2.414;2023-04-07T04:13:42;16.90;;;4.28;;
77099;SDS011;66602;48.922;2.414;2023-04-07T04:16:07;18.00;;;4.57;;
77099;SDS011;66602;48.922;2.414;2023-04-07T04:18:33;13.98;;;3.97;;
77099;SDS011;66602;48.922;2.414;2023-04-07T04:20:58;13.25;;;4.03;;
77099;SDS011;66602;48.922;2.414;2023-04-07T04:23:24;13.77;;;3.95;;
77099;SDS011;66602;48.922;2.414;2023-04-07T04:25:49;17.98;;;4.63;;
77099;SDS011;66602;48.922;2.414;2023-04-07T04:28:15;7.53;;;3.60;;
77099;SDS011;66602;48.922;2.414;2023-04-07T04:30:41;17.60;;;4.43;;
77099;SDS011;66602;48.922;2.414;2023-04-07T04:33:06;16.92;;;4.35;;
77099;SDS011;66602;48.922;2.414;2023-04-07T04:35:32;14.07;;;3.90;;
77099;SDS011;66602;48.922;2.414;2023-04-07T04:37:58;14.68;;;4.28;;
77099;SDS011;66602;48.922;2.414;2023-04-07T04:40:23;13.25;;;5.55;;
77099;SDS011;66602;48.922;2.414;2023-04-07T04:42:49;23.48;;;4.65;;
77099;SDS011;66602;48.922;2.414;2023-04-07T04:45:14;19.33;;;4.32;;
77099;SDS011;66602;48.922;2.414;2023-04-07T04:47:40;17.25;;;4.35;;
77099;SDS011;66602;48.922;2.414;2023-04-07T04:50:08;21.08;;;4.82;;
77099;SDS011;66602;48.922;2.414;2023-04-07T04:52:34;23.48;;;5.03;;
77099;SDS011;66602;48.922;2.414;2023-04-07T04:54:59;21.85;;;5.70;;
77099;SDS011;66602;48.922;2.414;2023-04-07T04:57:25;14.35;;;4.82;;
77099;SDS011;66602;48.922;2.414;2023-04-07T04:59:50;16.65;;;5.13;;
77099;SDS011;66602;48.922;2.414;2023-04-07T05:02:16;15.70;;;5.10;;
77099;SDS011;66602;48.922;2.414;2023-04-07T05:04:41;14.43;;;4.63;;
77099;SDS011;66602;48.922;2.414;2023-04-07T05:07:07;30.10;;;6.03;;
77099;SDS011;66602;48.922;2.414;2023-04-07T05:09:33;14.55;;;5.07;;
77099;SDS011;66602;48.922;2.414;2023-04-07T05:11:58;18.83;;;5.65;;
77099;SDS011;66602;48.922;2.414;2023-04-07T05:14:25;20.60;;;4.93;;
77099;SDS011;66602;48.922;2.414;2023-04-07T05:17:04;15.90;;;5.35;;
77099;SDS011;66602;48.922;2.414;2023-04-07T05:19:30;10.90;;;5.05;;
77099;SDS011;66602;48.922;2.414;2023-04-07T05:21:55;16.48;;;5.55;;
77099;SDS011;66602;48.922;2.414;2023-04-07T05:24:21;13.40;;;4.03;;
77099;SDS011;66602;48.922;2.414;2023-04-07T05:26:46;12.10;;;5.43;;
77099;SDS011;66602;48.922;2.414;2023-04-07T05:29:12;19.85;;;5.95;;
77099;SDS011;66602;48.922;2.414;2023-04-07T05:31:37;22.63;;;5.00;;
77099;SDS011;66602;48.922;2.414;2023-04-07T05:34:04;18.38;;;5.60;;
77099;SDS011;66602;48.922;2.414;2023-04-07T05:36:29;9.90;;;5.18;;
77099;SDS011;66602;48.922;2.414;2023-04-07T05:38:55;10.52;;;5.15;;
77099;SDS011;66602;48.922;2.414;2023-04-07T05:41:21;14.55;;;6.20;;
77099;SDS011;66602;48.922;2.414;2023-04-07T05:43:46;14.05;;;5.20;;
77099;SDS011;66602;48.922;2.414;2023-04-07T05:46:12;19.98;;;5.43;;
77099;SDS011;66602;48.922;2.414;2023-04-07T05:48:37;13.13;;;4.82;;
77099;SDS011;66602;48.922;2.414;2023-04-07T05:51:03;12.73;;;4.82;;
77099;SDS011;66602;48.922;2.414;2023-04-07T05:53:28;15.90;;;5.20;;
77099;SDS011;66602;48.922;2.414;2023-04-07T05:55:54;12.20;;;5.97;;
77099;SDS011;66602;48.922;2.414;2023-04-07T05:58:19;15.70;;;5.95;;
77099;SDS011;66602;48.922;2.414;2023-04-07T06:00:45;9.05;;;5.20;;
77099;SDS011;66602;48.922;2.414;2023-04-07T06:03:10;16.13;;;6.28;;
77099;SDS011;66602;48.922;2.414;2023-04-07T06:05:36;19.20;;;5.72;;
77099;SDS011;66602;48.922;2.414;2023-04-07T06:08:01;9.77;;;5.05;;
77099;SDS011;66602;48.922;2.414;2023-04-07T06:10:26;18.05;;;5.90;;
77099;SDS011;66602;48.922;2.414;2023-04-07T06:12:52;19.27;;;6.43;;
77099;SDS011;66602;48.922;2.414;2023-04-07T06:15:17;8.18;;;5.60;;
77099;SDS011;66602;48.922;2.414;2023-04-07T06:17:43;25.38;;;6.25;;
77099;SDS011;66602;48.922;2.414;2023-04-07T06:20:10;18.05;;;6.22;;
77099;SDS011;66602;48.922;2.414;2023-04-07T06:22:36;16.75;;;6.00;;
77099;SDS011;66602;48.922;2.414;2023-04-07T06:25:01;16.45;;;6.45;;
77099;SDS011;66602;48.922;2.414;2023-04-07T06:27:27;23.08;;;6.47;;
77099;SDS011;66602;48.922;2.414;2023-04-07T06:29:52;17.58;;;6.50;;
77099;SDS011;66602;48.922;2.414;2023-04-07T06:32:18;26.38;;;6.53;;
77099;SDS011;66602;48.922;2.414;2023-04-07T06:34:44;8.00;;;5.45;;
77099;SDS011;66602;48.922;2.414;2023-04-07T06:37:09;14.93;;;5.80;;
77099;SDS011;66602;48.922;2.414;2023-04-07T06:39:35;17.98;;;6.35;;
77099;SDS011;66602;48.922;2.414;2023-04-07T06:42:02;13.90;;;6.10;;
77099;SDS011;66602;48.922;2.414;2023-04-07T06:44:27;12.95;;;6.70;;
77099;SDS011;66602;48.922;2.414;2023-04-07T06:46:53;19.40;;;6.55;;
77099;SDS011;66602;48.922;2.414;2023-04-07T06:49:19;20.30;;;6.60;;
77099;SDS011;66602;48.922;2.414;2023-04-07T06:51:45;8.82;;;5.85;;
77099;SDS011;66602;48.922;2.414;2023-04-07T06:54:10;16.75;;;6.70;;
77099;SDS011;66602;48.922;2.414;2023-04-07T06:56:38;15.77;;;6.53;;
77099;SDS011;66602;48.922;2.414;2023-04-07T06:59:04;10.65;;;6.68;;
77099;SDS011;66602;48.922;2.414;2023-04-07T07:01:30;13.18;;;6.40;;
77099;SDS011;66602;48.922;2.414;2023-04-07T07:03:55;18.10;;;5.78;;
77099;SDS011;66602;48.922;2.414;2023-04-07T07:06:21;13.45;;;5.88;;
77099;SDS011;66602;48.922;2.414;2023-04-07T07:08:46;11.10;;;6.70;;
77099;SDS011;66602;48.922;2.414;2023-04-07T07:11:12;19.55;;;6.18;;
77099;SDS011;66602;48.922;2.414;2023-04-07T07:13:37;15.63;;;6.50;;
77099;SDS011;66602;48.922;2.414;2023-04-07T07:16:03;7.10;;;5.07;;
77099;SDS011;66602;48.922;2.414;2023-04-07T07:18:28;11.80;;;5.22;;
77099;SDS011;66602;48.922;2.414;2023-04-07T07:20:54;14.27;;;5.40;;
77099;SDS011;66602;48.922;2.414;2023-04-07T07:23:19;9.88;;;5.30;;
77099;SDS011;66602;48.922;2.414;2023-04-07T07:25:45;15.30;;;4.50;;
77099;SDS011;66602;48.922;2.414;2023-04-07T07:28:10;9.07;;;5.13;;
77099;SDS011;66602;48.922;2.414;2023-04-07T07:30:37;6.07;;;4.57;;
77099;SDS011;66602;48.922;2.414;2023-04-07T07:33:04;10.35;;;4.95;;
77099;SDS011;66602;48.922;2.414;2023-04-07T07:35:30;5.28;;;4.50;;
77099;SDS011;66602;48.922;2.414;2023-04-07T07:37:56;9.65;;;4.82;;
77099;SDS011;66602;48.922;2.414;2023-04-07T07:40:22;8.48;;;4.70;;
77099;SDS011;66602;48.922;2.414;2023-04-07T07:42:48;10.63;;;5.88;;
77099;SDS011;66602;48.922;2.414;2023-04-07T07:45:13;11.27;;;5.55;;
77099;SDS011;66602;48.922;2.414;2023-04-07T07:47:39;6.20;;;4.75;;
77099;SDS011;66602;48.922;2.414;2023-04-07T07:50:05;7.07;;;4.57;;
77099;SDS011;66602;48.922;2.414;2023-04-07T07:52:31;9.43;;;4.63;;
77099;SDS011;66602;48.922;2.414;2023-04-07T07:54:56;7.78;;;4.90;;
77099;SDS011;66602;48.922;2.414;2023-04-07T07:57:22;9.27;;;5.07;;
77099;SDS011;66602;48.922;2.414;2023-04-07T07:59:47;9.43;;;5.50;;
77099;SDS011;66602;48.922;2.414;2023-04-07T08:02:13;9.80;;;5.15;;
77099;SDS011;66602;48.922;2.414;2023-04-07T08:04:38;7.20;;;5.95;;
77099;SDS011;66602;48.922;2.414;2023-04-07T08:07:03;4.57;;;4.28;;
77099;SDS011;66602;48.922;2.414;2023-04-07T08:09:29;8.68;;;5.35;;
77099;SDS011;66602;48.922;2.414;2023-04-07T08:11:56;5.28;;;4.35;;
77099;SDS011;66602;48.922;2.414;2023-04-07T08:14:22;9.30;;;5.10;;
77099;SDS011;66602;48.922;2.414;2023-04-07T08:16:47;5.88;;;4.97;;
77099;SDS011;66602;48.922;2.414;2023-04-07T08:19:13;9.70;;;5.00;;
77099;SDS011;66602;48.922;2.414;2023-04-07T08:21:38;9.95;;;3.90;;
77099;SDS011;66602;48.922;2.414;2023-04-07T08:24:04;8.10;;;4.60;;
77099;SDS011;66602;48.922;2.414;2023-04-07T08:26:30;6.70;;;4.93;;
77099;SDS011;66602;48.922;2.414;2023-04-07T08:28:56;10.90;;;5.20;;
77099;SDS011;66602;48.922;2.414;2023-04-07T08:31:22;6.05;;;5.20;;
77099;SDS011;66602;48.922;2.414;2023-04-07T08:33:48;10.05;;;4.82;;
77099;SDS011;66602;48.922;2.414;2023-04-07T08:36:18;5.68;;;5.05;;
77099;SDS011;66602;48.922;2.414;2023-04-07T08:38:46;7.40;;;4.75;;
77099;SDS011;66602;48.922;2.414;2023-04-07T08:41:12;6.68;;;5.20;;
77099;SDS011;66602;48.922;2.414;2023-04-07T08:43:40;7.20;;;6.05;;
77099;SDS011;66602;48.922;2.414;2023-04-07T08:46:08;7.82;;;5.10;;
77099;SDS011;66602;48.922;2.414;2023-04-07T08:48:35;8.95;;;4.88;;
77099;SDS011;66602;48.922;2.414;2023-04-07T08:51:06;5.25;;;4.80;;
77099;SDS011;66602;48.922;2.414;2023-04-07T08:53:41;6.00;;;4.07;;
77099;SDS011;66602;48.922;2.414;2023-04-07T08:56:14;12.77;;;5.40;;
77099;SDS011;66602;48.922;2.414;2023-04-07T08:58:41;10.80;;;4.50;;
77099;SDS011;66602;48.922;2.414;2023-04-07T09:01:09;10.48;;;4.97;;
77099;SDS011;66602;48.922;2.414;2023-04-07T09:03:35;7.40;;;4.35;;
77099;SDS011;66602;48.922;2.414;2023-04-07T09:06:02;4.90;;;3.72;;
77099;SDS011;66602;48.922;2.414;2023-04-07T09:08:28;7.82;;;4.43;;
77099;SDS011;66602;48.922;2.414;2023-04-07T09:10:53;6.88;;;4.75;;
77099;SDS011;66602;48.922;2.414;2023-04-07T09:13:21;9.43;;;4.18;;
77099;SDS011;66602;48.922;2.414;2023-04-07T09:15:48;5.07;;;4.68;;
77099;SDS011;66602;48.922;2.414;2023-04-07T09:18:14;9.43;;;5.30;;
77099;SDS011;66602;48.922;2.414;2023-04-07T09:31:22;4.28;;;3.58;;
77099;SDS011;66602;48.922;2.414;2023-04-07T09:34:14;4.35;;;3.20;;
77099;SDS011;66602;48.922;2.414;2023-04-07T09:36:48;14.15;;;3.78;;
77099;SDS011;66602;48.922;2.414;2023-04-07T09:39:14;8.75;;;4.03;;
77099;SDS011;66602;48.922;2.414;2023-04-07T09:41:39;4.57;;;3.22;;
77099;SDS011;66602;48.922;2.414;2023-04-07T09:44:05;9.55;;;3.88;;
77099;SDS011;66602;48.922;2.414;2023-04-07T09:46:31;12.77;;;3.10;;
77099;SDS011;66602;48.922;2.414;2023-04-07T09:49:00;8.70;;;3.63;;
77099;SDS011;66602;48.922;2.414;2023-04-07T09:53:57;6.18;;;3.10;;
77099;SDS011;66602;48.922;2.414;2023-04-07T09:56:23;4.22;;;3.20;;
77099;SDS011;66602;48.922;2.414;2023-04-07T09:58:50;5.93;;;2.30;;
77099;SDS011;66602;48.922;2.414;2023-04-07T10:01:16;4.50;;;2.42;;
77099;SDS011;66602;48.922;2.414;2023-04-07T10:03:42;3.00;;;2.50;;
77099;SDS011;66602;48.922;2.414;2023-04-07T10:06:08;6.40;;;2.38;;
77099;SDS011;66602;48.922;2.414;2023-04-07T10:08:35;3.92;;;2.42;;
77099;SDS011;66602;48.922;2.414;2023-04-07T10:11:02;1.98;;;1.77;;
77099;SDS011;66602;48.922;2.414;2023-04-07T10:13:29;1.48;;;1.42;;
77099;SDS011;66602;48.922;2.414;2023-04-07T10:16:04;2.25;;;1.77;;
77099;SDS011;66602;48.922;2.414;2023-04-07T10:18:31;1.65;;;1.55;;
77099;SDS011;66602;48.922;2.414;2023-04-07T10:21:01;6.15;;;1.55;;
77099;SDS011;66602;48.922;2.414;2023-04-07T10:26:17;6.55;;;2.15;;
77099;SDS011;66602;48.922;2.414;2023-04-07T10:28:47;5.10;;;2.25;;
77099;SDS011;66602;48.922;2.414;2023-04-07T10:31:15;3.80;;;1.75;;
77099;SDS011;66602;48.922;2.414;2023-04-07T10:33:51;4.20;;;1.77;;
77099;SDS011;66602;48.922;2.414;2023-04-07T10:36:18;7.10;;;1.92;;
77099;SDS011;66602;48.922;2.414;2023-04-07T10:44:01;5.97;;;1.90;;
77099;SDS011;66602;48.922;2.414;2023-04-07T10:49:12;2.45;;;2.25;;
77099;SDS011;66602;48.922;2.414;2023-04-07T10:51:40;3.58;;;2.17;;
77099;SDS011;66602;48.922;2.414;2023-04-07T10:59:28;5.18;;;2.58;;
77099;SDS011;66602;48.922;2.414;2023-04-07T11:04:39;2.15;;;2.00;;
77099;SDS011;66602;48.922;2.414;2023-04-07T11:07:06;2.90;;;1.85;;
77099;SDS011;66602;48.922;2.414;2023-04-07T11:09:32;7.60;;;1.90;;
77099;SDS011;66602;48.922;2.414;2023-04-07T11:11:58;4.13;;;2.42;;
77099;SDS011;66602;48.922;2.414;2023-04-07T11:14:27;8.48;;;1.90;;
77099;SDS011;66602;48.922;2.414;2023-04-07T11:16:53;2.50;;;2.30;;
77099;SDS011;66602;48.922;2.414;2023-04-07T11:19:19;4.72;;;2.30;;
77099;SDS011;66602;48.922;2.414;2023-04-07T11:21:45;3.42;;;1.90;;
77099;SDS011;66602;48.922;2.414;2023-04-07T11:24:32;3.20;;;2.00;;
77099;SDS011;66602;48.922;2.414;2023-04-07T11:27:02;2.63;;;2.20;;
77099;SDS011;66602;48.922;2.414;2023-04-07T11:29:30;6.07;;;2.15;;
77099;SDS011;66602;48.922;2.414;2023-04-07T11:31:58;3.30;;;2.22;;
77099;SDS011;66602;48.922;2.414;2023-04-07T11:34:31;2.92;;;1.95;;
77099;SDS011;66602;48.922;2.414;2023-04-07T11:37:17;1.75;;;1.58;;
77099;SDS011;66602;48.922;2.414;2023-04-07T11:39:44;2.28;;;1.92;;
77099;SDS011;66602;48.922;2.414;2023-04-07T11:42:31;2.08;;;1.63;;
77099;SDS011;66602;48.922;2.414;2023-04-07T11:44:57;2.45;;;1.65;;
77099;SDS011;66602;48.922;2.414;2023-04-07T11:47:32;6.35;;;4.20;;
77099;SDS011;66602;48.922;2.414;2023-04-07T11:50:01;2.78;;;2.00;;
77099;SDS011;66602;48.922;2.414;2023-04-07T11:52:27;8.95;;;2.40;;
77099;SDS011;66602;48.922;2.414;2023-04-07T11:54:53;4.43;;;1.75;;
77099;SDS011;66602;48.922;2.414;2023-04-07T11:57:24;2.60;;;1.60;;
77099;SDS011;66602;48.922;2.414;2023-04-07T12:00:04;1.90;;;1.55;;
77099;SDS011;66602;48.922;2.414;2023-04-07T12:02:34;1.52;;;1.30;;
77099;SDS011;66602;48.922;2.414;2023-04-07T12:05:01;6.82;;;1.63;;
77099;SDS011;66602;48.922;2.414;2023-04-07T12:07:26;2.60;;;1.52;;
77099;SDS011;66602;48.922;2.414;2023-04-07T12:09:52;4.32;;;1.67;;
77099;SDS011;66602;48.922;2.414;2023-04-07T12:12:28;6.80;;;2.00;;
77099;SDS011;66602;48.922;2.414;2023-04-07T12:14:54;3.47;;;1.90;;
77099;SDS011;66602;48.922;2.414;2023-04-07T12:17:24;3.50;;;1.70;;
77099;SDS011;66602;48.922;2.414;2023-04-07T12:19:50;6.55;;;1.73;;
77099;SDS011;66602;48.922;2.414;2023-04-07T12:22:16;3.55;;;1.77;;
77099;SDS011;66602;48.922;2.414;2023-04-07T12:24:42;2.85;;;1.80;;
77099;SDS011;66602;48.922;2.414;2023-04-07T12:27:08;2.65;;;1.95;;
77099;SDS011;66602;48.922;2.414;2023-04-07T12:29:34;2.40;;;1.58;;
77099;SDS011;66602;48.922;2.414;2023-04-07T12:32:01;6.60;;;1.67;;
77099;SDS011;66602;48.922;2.414;2023-04-07T12:34:27;6.28;;;1.85;;
77099;SDS011;66602;48.922;2.414;2023-04-07T12:36:52;3.80;;;2.00;;
77099;SDS011;66602;48.922;2.414;2023-04-07T12:39:18;2.38;;;1.80;;
77099;SDS011;66602;48.922;2.414;2023-04-07T12:41:44;2.67;;;1.83;;
77099;SDS011;66602;48.922;2.414;2023-04-07T12:44:17;4.63;;;2.00;;
77099;SDS011;66602;48.922;2.414;2023-04-07T12:46:42;5.45;;;1.80;;
77099;SDS011;66602;48.922;2.414;2023-04-07T12:49:08;14.00;;;2.88;;
77099;SDS011;66602;48.922;2.414;2023-04-07T12:51:33;11.20;;;1.90;;
77099;SDS011;66602;48.922;2.414;2023-04-07T12:53:59;2.08;;;1.80;;
77099;SDS011;66602;48.922;2.414;2023-04-07T12:56:25;4.70;;;2.03;;
77099;SDS011;66602;48.922;2.414;2023-04-07T12:58:52;4.45;;;1.40;;
77099;SDS011;66602;48.922;2.414;2023-04-07T13:01:18;2.50;;;1.88;;
77099;SDS011;66602;48.922;2.414;2023-04-07T13:03:44;3.15;;;1.50;;
77099;SDS011;66602;48.922;2.414;2023-04-07T13:06:10;1.60;;;1.23;;
77099;SDS011;66602;48.922;2.414;2023-04-07T13:08:36;2.35;;;1.85;;
77099;SDS011;66602;48.922;2.414;2023-04-07T13:11:02;5.47;;;1.63;;
77099;SDS011;66602;48.922;2.414;2023-04-07T13:13:29;2.13;;;1.30;;
77099;SDS011;66602;48.922;2.414;2023-04-07T13:15:55;4.68;;;1.42;;
77099;SDS011;66602;48.922;2.414;2023-04-07T13:18:21;3.80;;;1.75;;
77099;SDS011;66602;48.922;2.414;2023-04-07T13:20:46;8.68;;;1.88;;
77099;SDS011;66602;48.922;2.414;2023-04-07T13:23:12;7.30;;;1.80;;
77099;SDS011;66602;48.922;2.414;2023-04-07T13:25:37;3.25;;;1.73;;
77099;SDS011;66602;48.922;2.414;2023-04-07T13:28:03;4.20;;;1.50;;
77099;SDS011;66602;48.922;2.414;2023-04-07T13:30:29;1.80;;;1.70;;
77099;SDS011;66602;48.922;2.414;2023-04-07T13:32:55;1.58;;;1.48;;
77099;SDS011;66602;48.922;2.414;2023-04-07T13:35:21;2.42;;;1.45;;
77099;SDS011;66602;48.922;2.414;2023-04-07T13:37:47;2.63;;;1.63;;
77099;SDS011;66602;48.922;2.414;2023-04-07T13:40:12;3.55;;;1.85;;
77099;SDS011;66602;48.922;2.414;2023-04-07T13:42:38;5.38;;;1.65;;
77099;SDS011;66602;48.922;2.414;2023-04-07T13:45:04;5.57;;;1.65;;
77099;SDS011;66602;48.922;2.414;2023-04-07T13:47:30;1.92;;;1.45;;
77099;SDS011;66602;48.922;2.414;2023-04-07T13:50:01;2.63;;;1.40;;
77099;SDS011;66602;48.922;2.414;2023-04-07T13:52:28;2.25;;;1.40;;
77099;SDS011;66602;48.922;2.414;2023-04-07T13:54:56;4.65;;;1.23;;
77099;SDS011;66602;48.922;2.414;2023-04-07T13:57:22;1.30;;;1.10;;
77099;SDS011;66602;48.922;2.414;2023-04-07T13:59:48;5.80;;;1.50;;
77099;SDS011;66602;48.922;2.414;2023-04-07T14:02:16;1.92;;;1.25;;
77099;SDS011;66602;48.922;2.414;2023-04-07T14:04:42;4.50;;;1.23;;
77099;SDS011;66602;48.922;2.414;2023-04-07T14:07:07;3.40;;;1.50;;
77099;SDS011;66602;48.922;2.414;2023-04-07T14:09:33;1.63;;;1.23;;
77099;SDS011;66602;48.922;2.414;2023-04-07T14:11:59;1.13;;;0.98;;
77099;SDS011;66602;48.922;2.414;2023-04-07T14:14:24;0.98;;;0.98;;
77099;SDS011;66602;48.922;2.414;2023-04-07T14:16:50;1.73;;;1.17;;
77099;SDS011;66602;48.922;2.414;2023-04-07T14:19:18;4.85;;;1.73;;
77099;SDS011;66602;48.922;2.414;2023-04-07T14:21:45;5.53;;;1.42;;
77099;SDS011;66602;48.922;2.414;2023-04-07T14:24:10;2.50;;;1.35;;
77099;SDS011;66602;48.922;2.414;2023-04-07T14:26:36;3.50;;;1.52;;
77099;SDS011;66602;48.922;2.414;2023-04-07T14:29:01;1.80;;;1.25;;
77099;SDS011;66602;48.922;2.414;2023-04-07T14:31:27;2.97;;;1.98;;
77099;SDS011;66602;48.922;2.414;2023-04-07T14:33:53;5.82;;;2.42;;
77099;SDS011;66602;48.922;2.414;2023-04-07T14:36:19;6.57;;;1.85;;
77099;SDS011;66602;48.922;2.414;2023-04-07T14:38:45;3.85;;;1.48;;
77099;SDS011;66602;48.922;2.414;2023-04-07T14:41:10;2.45;;;1.70;;
77099;SDS011;66602;48.922;2.414;2023-04-07T14:43:37;8.18;;;1.48;;
77099;SDS011;66602;48.922;2.414;2023-04-07T14:46:03;2.50;;;2.30;;
77099;SDS011;66602;48.922;2.414;2023-04-07T14:48:29;4.47;;;2.13;;
77099;SDS011;66602;48.922;2.414;2023-04-07T14:50:55;7.10;;;2.00;;
77099;SDS011;66602;48.922;2.414;2023-04-07T14:53:20;3.25;;;2.15;;
77099;SDS011;66602;48.922;2.414;2023-04-07T14:55:46;6.90;;;3.05;;
77099;SDS011;66602;48.922;2.414;2023-04-07T14:58:12;2.40;;;1.95;;
77099;SDS011;66602;48.922;2.414;2023-04-07T15:00:37;5.53;;;4.70;;
77099;SDS011;66602;48.922;2.414;2023-04-07T15:03:03;5.05;;;3.65;;
77099;SDS011;66602;48.922;2.414;2023-04-07T15:05:28;2.97;;;2.20;;
77099;SDS011;66602;48.922;2.414;2023-04-07T15:07:54;6.20;;;4.35;;
77099;SDS011;66602;48.922;2.414;2023-04-07T15:10:19;7.03;;;5.03;;
77099;SDS011;66602;48.922;2.414;2023-04-07T15:12:45;5.22;;;2.60;;
77099;SDS011;66602;48.922;2.414;2023-04-07T15:15:12;3.40;;;2.38;;
77099;SDS011;66602;48.922;2.414;2023-04-07T15:17:37;4.70;;;2.60;;
77099;SDS011;66602;48.922;2.414;2023-04-07T15:20:03;2.33;;;2.22;;